createdAt,value
2022-12-15T00:02:21.499Z,4.84
2022-12-15T00:05:07.155Z,4.98
2022-12-15T00:07:52.950Z,4.73
2022-12-15T00:10:39.263Z,4.89
2022-12-15T00:13:32.244Z,4.84
2022-12-15T00:16:18.348Z,5.00
2022-12-15T00:19:04.063Z,4.94
2022-12-15T00:21:49.868Z,5.20
2022-12-15T00:24:35.193Z,4.81
2022-12-15T00:27:21.201Z,4.77
2022-12-15T00:30:07.048Z,5.11
2022-12-15T00:32:52.552Z,5.16
2022-12-15T00:35:38.230Z,5.00
2022-12-15T00:38:32.610Z,5.02
2022-12-15T00:41:01.319Z,4.92
2022-12-15T00:43:30.232Z,4.56
2022-12-15T00:46:16.187Z,4.42
2022-12-15T00:48:43.462Z,4.67
2022-12-15T00:51:10.397Z,4.89
2022-12-15T00:53:55.998Z,4.60
2022-12-15T00:56:41.311Z,4.74
2022-12-15T00:59:27.213Z,4.75
2022-12-15T01:02:12.530Z,4.45
2022-12-15T01:04:58.280Z,4.41
2022-12-15T01:07:43.432Z,4.55
2022-12-15T01:10:29.264Z,4.23
2022-12-15T01:13:14.855Z,4.59
2022-12-15T01:16:00.226Z,4.62
2022-12-15T01:18:49.549Z,4.82
2022-12-15T01:21:16.644Z,5.08
2022-12-15T01:23:43.348Z,4.67
2022-12-15T01:26:10.380Z,5.06
2022-12-15T01:28:37.218Z,5.11
2022-12-15T01:31:11.667Z,5.23
2022-12-15T01:33:39.842Z,5.20
2022-12-15T01:36:07.261Z,5.23
2022-12-15T01:38:34.028Z,5.33
2022-12-15T01:41:07.272Z,5.07
2022-12-15T01:43:36.815Z,5.25
2022-12-15T01:46:08.253Z,5.43
2022-12-15T01:48:55.282Z,5.09
2022-12-15T01:51:39.635Z,5.21
2022-12-15T01:54:18.315Z,5.28
2022-12-15T01:56:50.049Z,5.52
2022-12-15T01:59:20.857Z,4.61
2022-12-15T02:01:49.986Z,4.69
2022-12-15T02:04:20.381Z,4.99
2022-12-15T02:06:47.169Z,4.98
2022-12-15T02:09:15.223Z,4.71
2022-12-15T02:11:41.910Z,4.68
2022-12-15T02:14:11.210Z,4.67
2022-12-15T02:16:43.723Z,4.59
2022-12-15T02:19:48.742Z,4.87
2022-12-15T02:22:34.951Z,4.41
2022-12-15T02:25:28.700Z,4.28
2022-12-15T02:28:06.919Z,4.45
2022-12-15T02:30:42.828Z,4.63
2022-12-15T02:33:27.311Z,4.83
2022-12-15T02:36:00.128Z,4.95
2022-12-15T02:38:38.293Z,5.07
2022-12-15T02:41:06.653Z,4.95
2022-12-15T02:43:37.898Z,4.98
2022-12-15T02:46:16.887Z,4.93
2022-12-15T02:49:09.933Z,4.71
2022-12-15T02:52:00.302Z,4.67
2022-12-15T02:54:33.025Z,4.54
2022-12-15T02:57:18.448Z,4.83
2022-12-15T02:59:58.328Z,4.85
2022-12-15T03:02:28.638Z,4.87
2022-12-15T03:04:56.590Z,4.69
2022-12-15T03:07:27.964Z,4.87
2022-12-15T03:10:00.003Z,4.87
2022-12-15T03:12:27.692Z,4.73
2022-12-15T03:14:54.478Z,4.80
2022-12-15T03:17:21.429Z,4.85
2022-12-15T03:19:49.756Z,4.67
2022-12-15T03:22:16.784Z,4.88
2022-12-15T03:24:43.611Z,4.70
2022-12-15T03:27:10.577Z,5.08
2022-12-15T03:29:38.333Z,5.12
2022-12-15T03:32:05.518Z,5.04
2022-12-15T03:34:32.299Z,4.99
2022-12-15T03:36:59.300Z,5.21
2022-12-15T03:39:26.098Z,5.23
2022-12-15T03:41:52.810Z,5.00
2022-12-15T03:44:19.513Z,5.18
2022-12-15T03:46:46.375Z,5.11
2022-12-15T03:49:13.083Z,5.14
2022-12-15T03:51:40.048Z,5.26
2022-12-15T03:54:07.450Z,5.65
2022-12-15T03:56:34.211Z,5.59
2022-12-15T03:59:00.953Z,5.66
2022-12-15T04:01:33.103Z,5.76
2022-12-15T04:04:01.811Z,5.66
2022-12-15T04:06:29.846Z,5.45
2022-12-15T04:08:57.209Z,5.54
2022-12-15T04:11:23.855Z,5.29
2022-12-15T04:13:50.594Z,5.39
2022-12-15T04:16:20.156Z,5.39
2022-12-15T04:19:07.822Z,5.45
2022-12-15T04:21:34.592Z,5.54
2022-12-15T04:24:19.777Z,5.29
2022-12-15T04:27:05.154Z,5.57
2022-12-15T04:29:50.578Z,5.49
2022-12-15T04:32:36.159Z,5.65
2022-12-15T04:35:21.677Z,5.08
2022-12-15T04:38:07.136Z,5.23
2022-12-15T04:40:52.700Z,5.14
2022-12-15T04:43:38.065Z,5.00
2022-12-15T04:46:23.345Z,4.91
2022-12-15T04:49:08.680Z,5.50
2022-12-15T04:51:53.952Z,5.48
2022-12-15T04:54:39.319Z,5.47
2022-12-15T04:57:24.633Z,5.51
2022-12-15T05:00:09.879Z,5.48
2022-12-15T05:02:55.166Z,5.53
2022-12-15T05:05:40.502Z,5.64
2022-12-15T05:08:25.760Z,5.74
2022-12-15T05:11:10.786Z,5.92
2022-12-15T05:13:56.109Z,5.90
2022-12-15T05:16:41.663Z,6.03
2022-12-15T05:19:26.832Z,6.10
2022-12-15T05:22:12.238Z,5.80
2022-12-15T05:24:57.581Z,5.47
2022-12-15T05:27:43.096Z,5.63
2022-12-15T05:30:28.885Z,5.50
2022-12-15T05:32:56.001Z,5.48
2022-12-15T05:35:23.215Z,5.70
2022-12-15T05:37:49.917Z,6.00
2022-12-15T05:40:16.730Z,5.85
2022-12-15T05:42:43.403Z,5.90
2022-12-15T05:45:16.886Z,5.77
2022-12-15T05:47:43.601Z,5.62
2022-12-15T05:50:10.539Z,5.75
2022-12-15T05:52:37.269Z,5.54
2022-12-15T05:55:04.345Z,5.24
2022-12-15T05:57:31.220Z,5.49
2022-12-15T05:59:58.041Z,5.50
2022-12-15T06:02:24.835Z,5.19
2022-12-15T06:04:51.796Z,5.27
2022-12-15T06:07:19.270Z,5.12
2022-12-15T06:09:46.502Z,4.79
2022-12-15T06:12:13.293Z,5.25
2022-12-15T06:14:40.151Z,5.18
2022-12-15T06:17:06.861Z,5.29
2022-12-15T06:19:33.884Z,5.11
2022-12-15T06:22:00.682Z,5.32
2022-12-15T06:24:27.617Z,5.72
2022-12-15T06:26:54.331Z,5.76
2022-12-15T06:29:21.026Z,5.81
2022-12-15T06:31:47.937Z,5.51
2022-12-15T06:34:17.012Z,5.63
2022-12-15T06:36:44.244Z,5.61
2022-12-15T06:39:13.234Z,5.46
2022-12-15T06:41:41.318Z,5.18
2022-12-15T06:44:08.080Z,5.52
2022-12-15T06:46:35.288Z,5.16
2022-12-15T06:49:02.154Z,4.94
2022-12-15T06:51:28.893Z,5.18
2022-12-15T06:53:56.519Z,5.27
2022-12-15T06:56:34.364Z,5.14
2022-12-15T06:59:04.181Z,5.41
2022-12-15T07:01:31.985Z,5.40
2022-12-15T07:04:01.373Z,5.79
2022-12-15T07:06:34.249Z,5.60
2022-12-15T07:09:02.199Z,5.69
2022-12-15T07:11:28.940Z,5.27
2022-12-15T07:13:55.646Z,5.41
2022-12-15T07:16:23.155Z,5.66
2022-12-15T07:18:51.022Z,6.01
2022-12-15T07:21:18.160Z,5.94
2022-12-15T07:23:54.884Z,5.58
2022-12-15T07:26:23.128Z,5.44
2022-12-15T07:28:49.817Z,5.85
2022-12-15T07:31:16.610Z,5.78
2022-12-15T07:33:43.665Z,5.89
2022-12-15T07:36:11.108Z,6.11
2022-12-15T07:38:38.253Z,6.35
2022-12-15T07:41:07.138Z,6.39
2022-12-15T07:43:35.045Z,6.41
2022-12-15T07:46:03.347Z,6.59
2022-12-15T07:48:31.682Z,6.31
2022-12-15T07:51:07.419Z,6.43
2022-12-15T07:53:37.192Z,6.72
2022-12-15T07:56:08.908Z,6.41
2022-12-15T07:58:37.490Z,6.48
2022-12-15T08:01:07.141Z,6.78
2022-12-15T08:03:35.785Z,6.98
2022-12-15T08:06:07.540Z,6.68
2022-12-15T08:08:35.742Z,6.74
2022-12-15T08:11:10.745Z,6.85
2022-12-15T08:16:26.520Z,7.08
2022-12-15T08:18:53.824Z,6.57
2022-12-15T08:21:20.766Z,6.92
2022-12-15T08:23:48.253Z,7.14
2022-12-15T08:26:17.234Z,6.92
2022-12-15T08:28:44.600Z,7.01
2022-12-15T08:31:18.078Z,6.85
2022-12-15T08:33:46.175Z,7.13
2022-12-15T08:36:14.435Z,6.93
2022-12-15T08:38:42.557Z,7.25
2022-12-15T08:41:12.152Z,7.41
2022-12-15T08:43:47.218Z,7.32
2022-12-15T08:46:16.870Z,7.63
2022-12-15T08:48:44.406Z,7.52
2022-12-15T08:51:12.157Z,7.69
2022-12-15T08:53:39.234Z,7.81
2022-12-15T08:56:08.308Z,7.68
2022-12-15T08:58:35.233Z,7.74
2022-12-15T09:01:07.763Z,7.55
2022-12-15T09:03:36.313Z,7.74
2022-12-15T09:06:07.915Z,7.34
2022-12-15T09:08:35.441Z,7.61
2022-12-15T09:11:02.649Z,7.63
2022-12-15T09:13:30.168Z,7.57
2022-12-15T09:16:09.335Z,7.13
2022-12-15T09:18:37.028Z,7.14
2022-12-15T09:21:06.239Z,7.32
2022-12-15T09:23:34.732Z,7.83
2022-12-15T09:26:02.982Z,7.95
2022-12-15T09:28:30.176Z,7.94
2022-12-15T09:31:24.632Z,7.65
2022-12-15T09:33:54.099Z,7.82
2022-12-15T09:36:22.330Z,7.97
2022-12-15T09:38:50.507Z,8.11
2022-12-15T09:41:33.134Z,7.87
2022-12-15T09:44:12.972Z,8.17
2022-12-15T09:46:56.301Z,7.98
2022-12-15T09:49:29.185Z,8.30
2022-12-15T09:52:10.730Z,8.24
2022-12-15T09:54:38.856Z,8.11
2022-12-15T09:57:15.424Z,8.21
2022-12-15T10:00:23.544Z,8.16
2022-12-15T10:03:09.548Z,8.22
2022-12-15T10:06:15.458Z,8.44
2022-12-15T10:08:33.445Z,8.33
2022-12-15T10:11:01.843Z,8.32
2022-12-15T10:13:37.591Z,8.31
2022-12-15T10:16:14.118Z,8.74
2022-12-15T10:18:56.097Z,8.43
2022-12-15T10:21:29.118Z,8.37
2022-12-15T10:27:32.783Z,8.16
2022-12-15T10:30:09.184Z,8.15
2022-12-15T10:32:51.088Z,8.05
2022-12-15T10:35:23.276Z,7.81
2022-12-15T10:37:50.320Z,7.83
2022-12-15T10:40:44.570Z,8.20
2022-12-15T10:43:37.332Z,8.55
2022-12-15T10:46:20.006Z,8.37
2022-12-15T10:49:07.073Z,8.14
2022-12-15T10:51:45.184Z,8.18
2022-12-15T10:54:14.570Z,8.57
2022-12-15T10:56:58.785Z,8.67
2022-12-15T10:59:36.786Z,8.85
2022-12-15T11:02:37.050Z,8.40
2022-12-15T11:05:16.981Z,8.49
2022-12-15T11:07:51.239Z,8.52
2022-12-15T11:10:48.782Z,8.84
2022-12-15T11:13:20.336Z,8.73
2022-12-15T11:15:51.852Z,8.76
2022-12-15T11:18:39.054Z,8.94
2022-12-15T11:21:27.555Z,8.71
2022-12-15T11:24:32.015Z,8.20
2022-12-15T11:27:09.079Z,8.30
2022-12-15T11:29:50.318Z,8.52
2022-12-15T11:32:23.211Z,8.53
2022-12-15T11:34:50.257Z,8.93
2022-12-15T11:37:42.532Z,8.98
2022-12-15T11:40:47.921Z,8.98
2022-12-15T11:43:44.782Z,9.38
2022-12-15T11:46:23.797Z,9.20
2022-12-15T11:49:15.405Z,9.05
2022-12-15T11:52:06.033Z,9.01
2022-12-15T11:54:38.835Z,9.19
2022-12-15T11:57:44.580Z,9.77
2022-12-15T12:00:16.299Z,10.92
2022-12-15T12:02:45.812Z,11.51
2022-12-15T12:05:38.404Z,12.04
2022-12-15T12:08:14.246Z,12.17
2022-12-15T12:10:48.626Z,12.61
2022-12-15T12:13:30.595Z,11.90
2022-12-15T12:16:18.519Z,11.94
2022-12-15T12:18:54.176Z,11.98
2022-12-15T12:21:43.032Z,12.30
2022-12-15T12:24:16.536Z,11.76
2022-12-15T12:27:09.276Z,11.59
2022-12-15T12:29:44.614Z,12.21
2022-12-15T12:32:15.990Z,12.63
2022-12-15T12:35:31.523Z,13.60
2022-12-15T12:38:05.385Z,14.10
2022-12-15T12:40:41.164Z,14.07
2022-12-15T12:43:44.430Z,14.59
2022-12-15T12:46:23.657Z,14.74
2022-12-15T12:49:22.848Z,14.43
2022-12-15T12:51:56.885Z,15.11
2022-12-15T12:54:32.545Z,15.07
2022-12-15T12:56:59.930Z,14.30
2022-12-15T12:59:29.523Z,14.37
2022-12-15T13:02:17.352Z,12.90
2022-12-15T13:04:50.640Z,12.71
2022-12-15T13:07:36.693Z,12.39
2022-12-15T13:10:11.715Z,12.89
2022-12-15T13:12:56.575Z,12.20
2022-12-15T13:15:23.278Z,12.93
2022-12-15T13:17:54.333Z,12.33
2022-12-15T13:20:28.761Z,11.76
2022-12-15T13:22:57.040Z,11.99
2022-12-15T13:25:41.307Z,11.87
2022-12-15T13:28:36.453Z,11.63
2022-12-15T13:31:21.467Z,11.67
2022-12-15T13:33:52.382Z,11.58
2022-12-15T13:36:37.624Z,11.00
2022-12-15T13:39:16.529Z,11.03
2022-12-15T13:42:15.335Z,10.96
2022-12-15T13:44:39.588Z,11.24
2022-12-15T13:47:12.837Z,10.91
2022-12-15T13:49:59.159Z,11.03
2022-12-15T13:53:08.030Z,11.09
2022-12-15T13:55:33.196Z,10.97
2022-12-15T13:58:05.207Z,11.02
2022-12-15T14:00:32.861Z,11.01
2022-12-15T14:03:07.724Z,10.78
2022-12-15T14:05:34.685Z,10.54
2022-12-15T14:08:03.512Z,10.67
2022-12-15T14:10:34.691Z,10.83
2022-12-15T14:13:25.908Z,10.54
2022-12-15T14:15:59.227Z,10.70
2022-12-15T14:18:35.155Z,10.77
2022-12-15T14:21:06.390Z,10.73
2022-12-15T14:24:11.049Z,10.70
2022-12-15T14:26:31.981Z,10.22
2022-12-15T14:29:05.021Z,10.32
2022-12-15T14:31:32.382Z,10.08
2022-12-15T14:34:06.426Z,10.22
2022-12-15T14:36:33.791Z,10.10
2022-12-15T14:39:04.567Z,9.67
2022-12-15T14:41:36.838Z,9.39
2022-12-15T14:44:31.559Z,9.75
2022-12-15T14:49:57.897Z,9.07
2022-12-15T14:52:36.289Z,9.60
2022-12-15T14:55:24.785Z,9.12
2022-12-15T14:57:53.271Z,9.72
2022-12-15T15:00:25.993Z,9.19
2022-12-15T15:03:16.332Z,9.96
2022-12-15T15:03:18.507Z,9.66
2022-12-15T15:05:48.333Z,9.66
2022-12-15T15:08:23.847Z,9.71
2022-12-15T15:10:51.302Z,9.48
2022-12-15T15:13:27.071Z,9.72
2022-12-15T15:16:04.080Z,9.53
2022-12-15T15:18:31.398Z,9.69
2022-12-15T15:21:03.421Z,8.92
2022-12-15T15:23:30.814Z,9.15
2022-12-15T15:26:06.720Z,9.02
2022-12-15T15:28:37.955Z,9.34
2022-12-15T15:31:25.820Z,8.96
2022-12-15T15:33:53.254Z,8.96
2022-12-15T15:36:21.837Z,9.03
2022-12-15T15:38:48.785Z,8.30
2022-12-15T15:41:21.515Z,8.71
2022-12-15T15:43:49.030Z,9.01
2022-12-15T15:46:22.694Z,8.77
2022-12-15T15:49:16.868Z,9.00
2022-12-15T15:51:43.847Z,8.17
2022-12-15T15:54:18.171Z,8.40
2022-12-15T15:56:45.045Z,8.56
2022-12-15T15:59:17.786Z,8.80
2022-12-15T16:01:46.665Z,8.72
2022-12-15T16:04:13.555Z,9.18
2022-12-15T16:06:46.993Z,8.38
2022-12-15T16:09:15.848Z,8.46
2022-12-15T16:11:43.195Z,8.54
2022-12-15T16:14:14.589Z,8.56
2022-12-15T16:16:42.016Z,8.78
2022-12-15T16:19:09.194Z,7.83
2022-12-15T16:21:36.634Z,8.30
2022-12-15T16:24:16.023Z,8.26
2022-12-15T16:26:48.337Z,8.69
2022-12-15T16:29:17.280Z,8.44
2022-12-15T16:31:47.231Z,8.23
2022-12-15T16:34:21.807Z,8.43
2022-12-15T16:36:48.770Z,8.51
2022-12-15T16:39:24.796Z,8.35
2022-12-15T16:41:53.275Z,8.05
2022-12-15T16:44:19.977Z,7.37
2022-12-15T16:46:46.844Z,7.90
2022-12-15T16:49:13.677Z,7.77
2022-12-15T16:51:48.123Z,8.04
2022-12-15T16:54:30.597Z,7.67
2022-12-15T16:57:00.368Z,7.95
2022-12-15T16:59:35.579Z,8.12
2022-12-15T17:02:33.430Z,8.12
2022-12-15T17:05:00.537Z,8.32
2022-12-15T17:07:28.126Z,8.61
2022-12-15T17:09:55.655Z,8.42
2022-12-15T17:12:22.385Z,8.21
2022-12-15T17:14:49.206Z,8.26
2022-12-15T17:17:18.670Z,8.44
2022-12-15T17:20:11.789Z,8.51
2022-12-15T17:22:33.525Z,8.46
2022-12-15T17:25:00.394Z,8.23
2022-12-15T17:27:29.838Z,8.56
2022-12-15T17:29:59.485Z,8.69
2022-12-15T17:32:26.861Z,7.63
2022-12-15T17:34:53.671Z,7.73
2022-12-15T17:37:20.444Z,7.76
2022-12-15T17:39:51.591Z,7.74
2022-12-15T17:42:20.565Z,8.20
2022-12-15T17:44:49.187Z,7.11
2022-12-15T17:47:18.922Z,7.84
2022-12-15T17:49:47.403Z,8.26
2022-12-15T17:52:26.305Z,8.41
2022-12-15T17:54:53.768Z,8.12
2022-12-15T17:57:20.484Z,8.35
2022-12-15T17:59:48.136Z,8.50
2022-12-15T18:02:15.414Z,8.17
2022-12-15T18:04:42.910Z,7.84
2022-12-15T18:07:21.743Z,7.79
2022-12-15T18:09:50.881Z,7.10
2022-12-15T18:12:23.429Z,7.11
2022-12-15T18:14:50.518Z,7.62
2022-12-15T18:17:17.434Z,7.53
2022-12-15T18:19:44.969Z,7.82
2022-12-15T18:22:23.636Z,7.70
2022-12-15T18:24:53.031Z,7.44
2022-12-15T18:27:26.621Z,7.57
2022-12-15T18:29:54.262Z,7.81
2022-12-15T18:32:25.505Z,7.58
2022-12-15T18:34:53.588Z,7.95
2022-12-15T18:37:23.042Z,7.97
2022-12-15T18:39:50.993Z,7.99
2022-12-15T18:42:20.030Z,8.09
2022-12-15T18:44:50.152Z,7.73
2022-12-15T18:47:18.857Z,7.80
2022-12-15T18:49:45.876Z,7.66
2022-12-15T18:52:25.764Z,7.78
2022-12-15T18:54:55.724Z,7.57
2022-12-15T18:57:34.871Z,7.65
2022-12-15T19:00:17.011Z,7.58
2022-12-15T19:02:44.031Z,7.67
2022-12-15T19:05:29.449Z,7.03
2022-12-15T19:08:03.094Z,7.28
2022-12-15T19:10:33.138Z,7.01
2022-12-15T19:13:01.033Z,6.79
2022-12-15T19:15:27.947Z,7.04
2022-12-15T19:18:13.758Z,7.03
2022-12-15T19:20:59.614Z,7.14
2022-12-15T19:23:26.514Z,6.92
2022-12-15T19:25:54.198Z,7.14
2022-12-15T19:28:23.005Z,7.02
2022-12-15T19:30:50.741Z,7.18
2022-12-15T19:33:18.758Z,7.25
2022-12-15T19:35:50.362Z,7.25
2022-12-15T19:38:22.311Z,7.28
2022-12-15T19:43:37.579Z,7.22
2022-12-15T19:46:04.528Z,6.63
2022-12-15T19:48:31.330Z,6.54
2022-12-15T19:50:58.223Z,6.74
2022-12-15T19:53:28.381Z,7.03
2022-12-15T19:56:01.310Z,6.95
2022-12-15T19:58:33.330Z,7.14
2022-12-15T20:01:12.308Z,6.74
2022-12-15T20:03:39.708Z,7.03
2022-12-15T20:06:23.212Z,7.04
2022-12-15T20:08:52.968Z,6.75
2022-12-15T20:11:30.423Z,6.87
2022-12-15T20:13:57.829Z,7.04
2022-12-15T20:16:25.167Z,6.95
2022-12-15T20:18:54.709Z,6.75
2022-12-15T20:21:24.579Z,7.15
2022-12-15T20:23:59.087Z,7.40
2022-12-15T20:26:26.055Z,7.07
2022-12-15T20:28:53.356Z,7.17
2022-12-15T20:31:23.176Z,7.42
2022-12-15T20:33:50.975Z,7.29
2022-12-15T20:36:19.205Z,6.87
2022-12-15T20:38:47.054Z,7.26
2022-12-15T20:41:30.420Z,7.57
2022-12-15T20:43:57.974Z,7.24
2022-12-15T20:46:28.054Z,7.25
2022-12-15T20:48:55.542Z,7.41
2022-12-15T20:51:27.813Z,7.41
2022-12-15T20:53:56.136Z,7.33
2022-12-15T20:56:23.850Z,7.06
2022-12-15T20:58:51.449Z,6.98
2022-12-15T21:01:22.438Z,7.31
2022-12-15T21:03:51.838Z,7.28
2022-12-15T21:06:19.327Z,7.09
2022-12-15T21:08:46.220Z,6.93
2022-12-15T21:11:19.669Z,7.04
2022-12-15T21:13:48.726Z,7.16
2022-12-15T21:16:21.672Z,7.44
2022-12-15T21:21:39.117Z,7.39
2022-12-15T21:24:33.065Z,7.47
2022-12-15T21:27:01.566Z,7.50
2022-12-15T21:29:28.969Z,7.02
2022-12-15T21:31:55.825Z,6.65
2022-12-15T21:34:22.639Z,6.81
2022-12-15T21:36:54.797Z,6.69
2022-12-15T21:39:36.470Z,6.82
2022-12-15T21:42:08.489Z,7.07
2022-12-15T21:44:35.440Z,6.71
2022-12-15T21:47:02.127Z,6.53
2022-12-15T21:49:29.011Z,6.26
2022-12-15T21:51:58.358Z,6.71
2022-12-15T21:54:31.441Z,6.88
2022-12-15T21:57:00.033Z,6.81
2022-12-15T21:59:29.525Z,6.12
2022-12-15T22:01:56.507Z,6.38
2022-12-15T22:04:32.018Z,6.48
2022-12-15T22:06:59.007Z,6.05
2022-12-15T22:09:25.943Z,6.29
2022-12-15T22:11:55.791Z,6.30
2022-12-15T22:14:27.175Z,6.57
2022-12-15T22:16:54.428Z,6.73
2022-12-15T22:19:22.018Z,6.90
2022-12-15T22:21:49.040Z,6.88
2022-12-15T22:24:15.761Z,7.01
2022-12-15T22:26:42.956Z,6.82
2022-12-15T22:29:21.692Z,6.94
2022-12-15T22:31:50.217Z,7.07
2022-12-15T22:34:23.176Z,6.73
2022-12-15T22:36:50.779Z,6.55
2022-12-15T22:39:19.429Z,6.77
2022-12-15T22:41:50.004Z,6.47
2022-12-15T22:44:28.101Z,6.93
2022-12-15T22:46:58.313Z,7.13
2022-12-15T22:49:31.097Z,7.24
2022-12-15T22:51:58.240Z,6.97
2022-12-15T22:54:27.458Z,6.85
2022-12-15T22:57:00.821Z,7.00
2022-12-15T22:59:36.188Z,6.78
2022-12-15T23:02:04.116Z,7.11
2022-12-15T23:04:31.909Z,6.88
2022-12-15T23:07:02.517Z,6.88
2022-12-15T23:09:29.454Z,6.82
2022-12-15T23:11:56.357Z,6.50
2022-12-15T23:14:43.239Z,6.98
2022-12-15T23:17:12.112Z,6.65
2022-12-15T23:19:45.783Z,6.72
2022-12-15T23:22:13.598Z,6.85
2022-12-15T23:24:40.808Z,6.93
2022-12-15T23:27:11.644Z,6.82
2022-12-15T23:29:38.562Z,6.95
2022-12-15T23:32:06.073Z,6.40
2022-12-15T23:34:32.955Z,6.32
2022-12-15T23:36:59.822Z,6.51
2022-12-15T23:39:26.546Z,6.65
2022-12-15T23:41:53.243Z,6.89
2022-12-15T23:44:20.227Z,6.96
2022-12-15T23:46:47.050Z,6.77
2022-12-15T23:49:13.879Z,6.59
2022-12-15T23:51:40.699Z,5.96
2022-12-15T23:54:07.558Z,6.27
2022-12-15T23:56:35.036Z,6.64
2022-12-15T23:59:01.825Z,6.73
